sensor_id;sensor_type;location;lat;lon;timestamp;P1;durP1;ratioP1;P2;durP2;ratioP2
78854;SDS011;68206;59.956;30.234;2023-08-08T00:01:19;5.45;;;4.43;;
78854;SDS011;68206;59.956;30.234;2023-08-08T00:03:49;5.05;;;4.20;;
78854;SDS011;68206;59.956;30.234;2023-08-08T00:06:17;7.50;;;3.90;;
78854;SDS011;68206;59.956;30.234;2023-08-08T00:08:46;6.85;;;3.72;;
78854;SDS011;68206;59.956;30.234;2023-08-08T00:11:14;9.80;;;4.30;;
78854;SDS011;68206;59.956;30.234;2023-08-08T00:13:43;11.10;;;4.15;;
78854;SDS011;68206;59.956;30.234;2023-08-08T00:16:11;8.07;;;3.95;;
78854;SDS011;68206;59.956;30.234;2023-08-08T00:18:39;5.72;;;4.25;;
78854;SDS011;68206;59.956;30.234;2023-08-08T00:21:09;6.38;;;4.05;;
78854;SDS011;68206;59.956;30.234;2023-08-08T00:23:37;6.53;;;3.55;;
78854;SDS011;68206;59.956;30.234;2023-08-08T00:26:05;6.78;;;4.28;;
78854;SDS011;68206;59.956;30.234;2023-08-08T00:28:33;6.45;;;4.40;;
78854;SDS011;68206;59.956;30.234;2023-08-08T00:31:02;8.57;;;4.90;;
78854;SDS011;68206;59.956;30.234;2023-08-08T00:33:32;4.57;;;3.97;;
78854;SDS011;68206;59.956;30.234;2023-08-08T00:36:01;7.68;;;4.13;;
78854;SDS011;68206;59.956;30.234;2023-08-08T00:38:30;5.70;;;3.95;;
78854;SDS011;68206;59.956;30.234;2023-08-08T00:40:59;7.05;;;3.88;;
78854;SDS011;68206;59.956;30.234;2023-08-08T00:43:27;8.00;;;4.72;;
78854;SDS011;68206;59.956;30.234;2023-08-08T00:45:55;9.90;;;4.03;;
78854;SDS011;68206;59.956;30.234;2023-08-08T00:48:26;6.97;;;3.95;;
78854;SDS011;68206;59.956;30.234;2023-08-08T00:50:56;7.05;;;4.15;;
78854;SDS011;68206;59.956;30.234;2023-08-08T00:53:25;7.65;;;4.47;;
78854;SDS011;68206;59.956;30.234;2023-08-08T00:55:56;7.50;;;4.03;;
78854;SDS011;68206;59.956;30.234;2023-08-08T00:58:24;7.68;;;4.00;;
78854;SDS011;68206;59.956;30.234;2023-08-08T01:00:54;6.93;;;4.07;;
78854;SDS011;68206;59.956;30.234;2023-08-08T01:03:27;9.38;;;4.82;;
78854;SDS011;68206;59.956;30.234;2023-08-08T01:05:58;7.38;;;4.78;;
78854;SDS011;68206;59.956;30.234;2023-08-08T01:08:33;6.30;;;3.92;;
78854;SDS011;68206;59.956;30.234;2023-08-08T01:11:09;6.95;;;3.92;;
78854;SDS011;68206;59.956;30.234;2023-08-08T01:13:38;7.15;;;3.92;;
78854;SDS011;68206;59.956;30.234;2023-08-08T01:16:07;6.88;;;4.30;;
78854;SDS011;68206;59.956;30.234;2023-08-08T01:18:37;11.38;;;4.43;;
78854;SDS011;68206;59.956;30.234;2023-08-08T01:21:06;6.28;;;4.10;;
78854;SDS011;68206;59.956;30.234;2023-08-08T01:23:41;8.85;;;3.80;;
78854;SDS011;68206;59.956;30.234;2023-08-08T01:26:14;5.07;;;3.88;;
78854;SDS011;68206;59.956;30.234;2023-08-08T01:28:42;6.18;;;4.38;;
78854;SDS011;68206;59.956;30.234;2023-08-08T01:31:11;6.85;;;4.72;;
78854;SDS011;68206;59.956;30.234;2023-08-08T01:33:40;8.95;;;5.45;;
78854;SDS011;68206;59.956;30.234;2023-08-08T01:36:10;11.23;;;4.35;;
78854;SDS011;68206;59.956;30.234;2023-08-08T01:38:42;7.60;;;4.57;;
78854;SDS011;68206;59.956;30.234;2023-08-08T01:41:12;8.40;;;4.10;;
78854;SDS011;68206;59.956;30.234;2023-08-08T01:43:43;6.20;;;4.25;;
78854;SDS011;68206;59.956;30.234;2023-08-08T01:46:12;10.35;;;4.35;;
78854;SDS011;68206;59.956;30.234;2023-08-08T01:48:44;8.15;;;4.65;;
78854;SDS011;68206;59.956;30.234;2023-08-08T01:53:41;6.40;;;4.15;;
78854;SDS011;68206;59.956;30.234;2023-08-08T01:56:09;10.48;;;5.30;;
78854;SDS011;68206;59.956;30.234;2023-08-08T01:58:38;10.77;;;4.43;;
78854;SDS011;68206;59.956;30.234;2023-08-08T02:01:08;9.48;;;4.85;;
78854;SDS011;68206;59.956;30.234;2023-08-08T02:03:36;9.10;;;4.40;;
78854;SDS011;68206;59.956;30.234;2023-08-08T02:06:04;7.50;;;4.57;;
78854;SDS011;68206;59.956;30.234;2023-08-08T02:08:33;6.72;;;4.57;;
78854;SDS011;68206;59.956;30.234;2023-08-08T02:11:01;7.30;;;4.35;;
78854;SDS011;68206;59.956;30.234;2023-08-08T02:13:30;10.35;;;4.45;;
78854;SDS011;68206;59.956;30.234;2023-08-08T02:15:58;12.45;;;5.28;;
78854;SDS011;68206;59.956;30.234;2023-08-08T02:18:28;8.73;;;4.40;;
78854;SDS011;68206;59.956;30.234;2023-08-08T02:20:57;9.88;;;4.80;;
78854;SDS011;68206;59.956;30.234;2023-08-08T02:23:25;7.18;;;4.47;;
78854;SDS011;68206;59.956;30.234;2023-08-08T02:25:55;5.80;;;3.95;;
78854;SDS011;68206;59.956;30.234;2023-08-08T02:28:24;9.82;;;4.32;;
78854;SDS011;68206;59.956;30.234;2023-08-08T02:30:54;11.48;;;4.22;;
78854;SDS011;68206;59.956;30.234;2023-08-08T02:33:22;10.02;;;3.80;;
78854;SDS011;68206;59.956;30.234;2023-08-08T02:35:52;6.65;;;3.70;;
78854;SDS011;68206;59.956;30.234;2023-08-08T02:38:20;7.10;;;4.10;;
78854;SDS011;68206;59.956;30.234;2023-08-08T02:40:48;6.50;;;3.90;;
78854;SDS011;68206;59.956;30.234;2023-08-08T02:43:17;5.82;;;4.28;;
78854;SDS011;68206;59.956;30.234;2023-08-08T02:45:45;7.32;;;4.07;;
78854;SDS011;68206;59.956;30.234;2023-08-08T02:48:14;4.63;;;3.40;;
78854;SDS011;68206;59.956;30.234;2023-08-08T02:50:43;6.22;;;4.35;;
78854;SDS011;68206;59.956;30.234;2023-08-08T02:53:12;8.88;;;4.05;;
78854;SDS011;68206;59.956;30.234;2023-08-08T02:55:45;5.30;;;3.72;;
78854;SDS011;68206;59.956;30.234;2023-08-08T02:58:15;6.53;;;4.00;;
78854;SDS011;68206;59.956;30.234;2023-08-08T03:00:44;11.75;;;4.68;;
78854;SDS011;68206;59.956;30.234;2023-08-08T03:03:15;18.67;;;4.75;;
78854;SDS011;68206;59.956;30.234;2023-08-08T03:05:44;6.43;;;4.65;;
78854;SDS011;68206;59.956;30.234;2023-08-08T03:08:17;5.47;;;3.92;;
78854;SDS011;68206;59.956;30.234;2023-08-08T03:10:45;9.90;;;3.70;;
78854;SDS011;68206;59.956;30.234;2023-08-08T03:13:14;7.25;;;4.30;;
78854;SDS011;68206;59.956;30.234;2023-08-08T03:15:42;5.78;;;4.35;;
78854;SDS011;68206;59.956;30.234;2023-08-08T03:18:10;8.85;;;4.50;;
78854;SDS011;68206;59.956;30.234;2023-08-08T03:20:39;7.47;;;4.25;;
78854;SDS011;68206;59.956;30.234;2023-08-08T03:23:08;4.68;;;3.80;;
78854;SDS011;68206;59.956;30.234;2023-08-08T03:25:39;10.77;;;4.63;;
78854;SDS011;68206;59.956;30.234;2023-08-08T03:28:11;5.65;;;3.83;;
78854;SDS011;68206;59.956;30.234;2023-08-08T03:30:40;7.15;;;4.53;;
78854;SDS011;68206;59.956;30.234;2023-08-08T03:33:10;8.32;;;4.78;;
78854;SDS011;68206;59.956;30.234;2023-08-08T03:35:40;6.35;;;4.35;;
78854;SDS011;68206;59.956;30.234;2023-08-08T03:38:11;5.30;;;4.25;;
78854;SDS011;68206;59.956;30.234;2023-08-08T03:40:42;10.95;;;4.75;;
78854;SDS011;68206;59.956;30.234;2023-08-08T03:43:10;11.00;;;4.60;;
78854;SDS011;68206;59.956;30.234;2023-08-08T03:45:39;6.35;;;4.80;;
78854;SDS011;68206;59.956;30.234;2023-08-08T03:48:07;7.63;;;4.43;;
78854;SDS011;68206;59.956;30.234;2023-08-08T03:50:35;7.25;;;3.95;;
78854;SDS011;68206;59.956;30.234;2023-08-08T03:53:04;8.93;;;4.18;;
78854;SDS011;68206;59.956;30.234;2023-08-08T03:55:32;5.40;;;4.03;;
78854;SDS011;68206;59.956;30.234;2023-08-08T03:58:03;11.02;;;4.60;;
78854;SDS011;68206;59.956;30.234;2023-08-08T04:00:33;8.05;;;4.00;;
78854;SDS011;68206;59.956;30.234;2023-08-08T04:03:01;8.60;;;4.30;;
78854;SDS011;68206;59.956;30.234;2023-08-08T04:05:30;7.93;;;4.07;;
78854;SDS011;68206;59.956;30.234;2023-08-08T04:07:58;5.88;;;4.10;;
78854;SDS011;68206;59.956;30.234;2023-08-08T04:10:26;6.15;;;4.10;;
78854;SDS011;68206;59.956;30.234;2023-08-08T04:12:55;6.47;;;4.20;;
78854;SDS011;68206;59.956;30.234;2023-08-08T04:15:25;7.10;;;4.15;;
78854;SDS011;68206;59.956;30.234;2023-08-08T04:17:53;6.00;;;4.60;;
78854;SDS011;68206;59.956;30.234;2023-08-08T04:34:51;9.88;;;4.20;;
78854;SDS011;68206;59.956;30.234;2023-08-08T04:37:20;11.90;;;4.30;;
78854;SDS011;68206;59.956;30.234;2023-08-08T04:39:48;6.60;;;3.92;;
78854;SDS011;68206;59.956;30.234;2023-08-08T04:42:16;8.48;;;4.60;;
78854;SDS011;68206;59.956;30.234;2023-08-08T04:44:45;8.45;;;4.55;;
78854;SDS011;68206;59.956;30.234;2023-08-08T04:47:13;6.82;;;4.60;;
78854;SDS011;68206;59.956;30.234;2023-08-08T04:49:41;12.35;;;4.80;;
78854;SDS011;68206;59.956;30.234;2023-08-08T04:52:10;9.07;;;4.43;;
78854;SDS011;68206;59.956;30.234;2023-08-08T04:54:39;5.82;;;4.40;;
78854;SDS011;68206;59.956;30.234;2023-08-08T04:57:07;5.97;;;4.03;;
78854;SDS011;68206;59.956;30.234;2023-08-08T04:59:36;6.90;;;4.15;;
78854;SDS011;68206;59.956;30.234;2023-08-08T05:02:04;8.05;;;4.45;;
78854;SDS011;68206;59.956;30.234;2023-08-08T05:04:32;7.72;;;4.00;;
78854;SDS011;68206;59.956;30.234;2023-08-08T05:07:01;8.30;;;3.97;;
78854;SDS011;68206;59.956;30.234;2023-08-08T05:09:30;8.45;;;5.13;;
78854;SDS011;68206;59.956;30.234;2023-08-08T05:11:59;6.38;;;4.32;;
78854;SDS011;68206;59.956;30.234;2023-08-08T05:14:27;8.05;;;5.35;;
78854;SDS011;68206;59.956;30.234;2023-08-08T05:16:56;8.23;;;4.82;;
78854;SDS011;68206;59.956;30.234;2023-08-08T05:19:24;9.38;;;4.75;;
78854;SDS011;68206;59.956;30.234;2023-08-08T05:21:52;12.77;;;5.13;;
78854;SDS011;68206;59.956;30.234;2023-08-08T05:24:21;7.93;;;5.45;;
78854;SDS011;68206;59.956;30.234;2023-08-08T05:26:50;17.13;;;6.22;;
78854;SDS011;68206;59.956;30.234;2023-08-08T05:29:20;8.25;;;5.22;;
78854;SDS011;68206;59.956;30.234;2023-08-08T05:31:48;10.85;;;5.20;;
78854;SDS011;68206;59.956;30.234;2023-08-08T05:34:16;14.65;;;6.40;;
78854;SDS011;68206;59.956;30.234;2023-08-08T05:36:45;10.52;;;5.63;;
78854;SDS011;68206;59.956;30.234;2023-08-08T05:39:17;8.40;;;6.25;;
78854;SDS011;68206;59.956;30.234;2023-08-08T05:41:46;9.13;;;5.75;;
78854;SDS011;68206;59.956;30.234;2023-08-08T05:44:16;9.30;;;5.47;;
78854;SDS011;68206;59.956;30.234;2023-08-08T05:46:45;12.10;;;6.78;;
78854;SDS011;68206;59.956;30.234;2023-08-08T05:49:13;9.60;;;5.85;;
78854;SDS011;68206;59.956;30.234;2023-08-08T05:51:41;7.32;;;5.72;;
78854;SDS011;68206;59.956;30.234;2023-08-08T05:54:09;8.85;;;5.30;;
78854;SDS011;68206;59.956;30.234;2023-08-08T05:56:39;9.85;;;6.68;;
78854;SDS011;68206;59.956;30.234;2023-08-08T05:59:15;11.10;;;6.47;;
78854;SDS011;68206;59.956;30.234;2023-08-08T06:02:02;10.48;;;5.80;;
78854;SDS011;68206;59.956;30.234;2023-08-08T06:04:47;11.45;;;6.20;;
78854;SDS011;68206;59.956;30.234;2023-08-08T06:07:29;8.10;;;5.93;;
78854;SDS011;68206;59.956;30.234;2023-08-08T06:09:57;10.25;;;5.97;;
78854;SDS011;68206;59.956;30.234;2023-08-08T06:12:26;8.60;;;6.22;;
78854;SDS011;68206;59.956;30.234;2023-08-08T06:14:55;8.73;;;5.80;;
78854;SDS011;68206;59.956;30.234;2023-08-08T06:17:24;14.43;;;6.63;;
78854;SDS011;68206;59.956;30.234;2023-08-08T06:19:53;11.23;;;6.40;;
78854;SDS011;68206;59.956;30.234;2023-08-08T06:22:23;8.73;;;5.47;;
78854;SDS011;68206;59.956;30.234;2023-08-08T06:24:52;9.27;;;5.88;;
78854;SDS011;68206;59.956;30.234;2023-08-08T06:27:20;12.82;;;6.15;;
78854;SDS011;68206;59.956;30.234;2023-08-08T06:29:49;9.57;;;6.32;;
78854;SDS011;68206;59.956;30.234;2023-08-08T06:32:18;8.95;;;6.18;;
78854;SDS011;68206;59.956;30.234;2023-08-08T06:34:47;12.02;;;6.78;;
78854;SDS011;68206;59.956;30.234;2023-08-08T06:37:15;9.15;;;6.03;;
78854;SDS011;68206;59.956;30.234;2023-08-08T06:39:43;13.38;;;6.50;;
78854;SDS011;68206;59.956;30.234;2023-08-08T06:42:11;9.82;;;6.65;;
78854;SDS011;68206;59.956;30.234;2023-08-08T06:44:51;9.57;;;5.93;;
78854;SDS011;68206;59.956;30.234;2023-08-08T06:47:21;11.82;;;5.72;;
78854;SDS011;68206;59.956;30.234;2023-08-08T06:49:49;11.65;;;6.07;;
78854;SDS011;68206;59.956;30.234;2023-08-08T06:52:18;5.18;;;4.55;;
78854;SDS011;68206;59.956;30.234;2023-08-08T06:54:46;9.20;;;5.50;;
78854;SDS011;68206;59.956;30.234;2023-08-08T06:57:14;7.90;;;5.63;;
78854;SDS011;68206;59.956;30.234;2023-08-08T06:59:43;10.55;;;5.55;;
78854;SDS011;68206;59.956;30.234;2023-08-08T07:02:14;10.65;;;6.00;;
78854;SDS011;68206;59.956;30.234;2023-08-08T07:04:43;7.10;;;4.93;;
78854;SDS011;68206;59.956;30.234;2023-08-08T07:07:12;9.07;;;5.43;;
78854;SDS011;68206;59.956;30.234;2023-08-08T07:09:41;8.25;;;5.55;;
78854;SDS011;68206;59.956;30.234;2023-08-08T07:12:09;7.45;;;5.10;;
78854;SDS011;68206;59.956;30.234;2023-08-08T07:14:38;6.75;;;4.57;;
78854;SDS011;68206;59.956;30.234;2023-08-08T07:17:06;6.57;;;4.90;;
78854;SDS011;68206;59.956;30.234;2023-08-08T07:19:35;7.35;;;4.75;;
78854;SDS011;68206;59.956;30.234;2023-08-08T07:22:05;8.65;;;5.28;;
78854;SDS011;68206;59.956;30.234;2023-08-08T07:24:33;7.68;;;4.90;;
78854;SDS011;68206;59.956;30.234;2023-08-08T07:27:02;8.93;;;5.68;;
78854;SDS011;68206;59.956;30.234;2023-08-08T07:29:31;7.97;;;5.57;;
78854;SDS011;68206;59.956;30.234;2023-08-08T07:31:59;7.78;;;5.10;;
78854;SDS011;68206;59.956;30.234;2023-08-08T07:34:31;8.48;;;5.40;;
78854;SDS011;68206;59.956;30.234;2023-08-08T07:36:59;7.03;;;5.38;;
78854;SDS011;68206;59.956;30.234;2023-08-08T07:39:29;11.30;;;6.07;;
78854;SDS011;68206;59.956;30.234;2023-08-08T07:41:58;9.45;;;4.70;;
78854;SDS011;68206;59.956;30.234;2023-08-08T07:44:26;7.60;;;4.50;;
78854;SDS011;68206;59.956;30.234;2023-08-08T07:46:54;9.30;;;5.00;;
78854;SDS011;68206;59.956;30.234;2023-08-08T07:49:23;7.47;;;4.97;;
78854;SDS011;68206;59.956;30.234;2023-08-08T07:51:51;11.30;;;4.55;;
78854;SDS011;68206;59.956;30.234;2023-08-08T07:54:19;7.18;;;5.10;;
78854;SDS011;68206;59.956;30.234;2023-08-08T07:56:49;9.43;;;4.55;;
78854;SDS011;68206;59.956;30.234;2023-08-08T07:59:17;4.70;;;4.00;;
78854;SDS011;68206;59.956;30.234;2023-08-08T08:01:46;8.27;;;4.65;;
78854;SDS011;68206;59.956;30.234;2023-08-08T08:04:14;5.93;;;4.50;;
78854;SDS011;68206;59.956;30.234;2023-08-08T08:06:43;6.63;;;4.05;;
78854;SDS011;68206;59.956;30.234;2023-08-08T08:09:11;6.57;;;4.28;;
78854;SDS011;68206;59.956;30.234;2023-08-08T08:11:39;7.22;;;4.80;;
78854;SDS011;68206;59.956;30.234;2023-08-08T08:14:09;13.85;;;4.15;;
78854;SDS011;68206;59.956;30.234;2023-08-08T08:16:38;6.43;;;4.18;;
78854;SDS011;68206;59.956;30.234;2023-08-08T08:19:06;10.27;;;4.28;;
78854;SDS011;68206;59.956;30.234;2023-08-08T08:21:34;10.30;;;4.00;;
78854;SDS011;68206;59.956;30.234;2023-08-08T08:24:03;5.22;;;3.72;;
78854;SDS011;68206;59.956;30.234;2023-08-08T08:26:32;5.38;;;3.35;;
78854;SDS011;68206;59.956;30.234;2023-08-08T08:29:00;5.65;;;2.75;;
78854;SDS011;68206;59.956;30.234;2023-08-08T08:31:30;3.33;;;2.10;;
78854;SDS011;68206;59.956;30.234;2023-08-08T08:33:58;3.30;;;2.30;;
78854;SDS011;68206;59.956;30.234;2023-08-08T08:36:26;3.20;;;2.00;;
78854;SDS011;68206;59.956;30.234;2023-08-08T08:38:55;2.90;;;1.60;;
78854;SDS011;68206;59.956;30.234;2023-08-08T08:41:25;3.17;;;1.70;;
78854;SDS011;68206;59.956;30.234;2023-08-08T08:43:56;2.30;;;1.33;;
78854;SDS011;68206;59.956;30.234;2023-08-08T08:46:24;5.95;;;2.00;;
78854;SDS011;68206;59.956;30.234;2023-08-08T08:48:55;9.57;;;2.00;;
78854;SDS011;68206;59.956;30.234;2023-08-08T08:53:55;2.63;;;1.60;;
78854;SDS011;68206;59.956;30.234;2023-08-08T08:56:25;2.78;;;1.67;;
78854;SDS011;68206;59.956;30.234;2023-08-08T08:58:53;6.85;;;2.45;;
78854;SDS011;68206;59.956;30.234;2023-08-08T09:01:22;3.75;;;1.60;;
78854;SDS011;68206;59.956;30.234;2023-08-08T09:03:52;3.40;;;1.63;;
78854;SDS011;68206;59.956;30.234;2023-08-08T09:06:22;3.20;;;1.98;;
78854;SDS011;68206;59.956;30.234;2023-08-08T09:08:51;4.53;;;2.50;;
78854;SDS011;68206;59.956;30.234;2023-08-08T09:11:29;5.22;;;2.15;;
78854;SDS011;68206;59.956;30.234;2023-08-08T09:13:59;2.22;;;1.70;;
78854;SDS011;68206;59.956;30.234;2023-08-08T09:16:29;3.17;;;2.13;;
78854;SDS011;68206;59.956;30.234;2023-08-08T09:18:58;4.97;;;2.25;;
78854;SDS011;68206;59.956;30.234;2023-08-08T09:21:28;4.55;;;1.77;;
78854;SDS011;68206;59.956;30.234;2023-08-08T09:23:58;3.65;;;1.60;;
78854;SDS011;68206;59.956;30.234;2023-08-08T09:26:26;9.32;;;2.22;;
78854;SDS011;68206;59.956;30.234;2023-08-08T09:28:56;6.35;;;2.20;;
78854;SDS011;68206;59.956;30.234;2023-08-08T09:31:24;2.45;;;1.70;;
78854;SDS011;68206;59.956;30.234;2023-08-08T09:33:55;3.92;;;1.92;;
78854;SDS011;68206;59.956;30.234;2023-08-08T09:36:24;3.28;;;1.60;;
78854;SDS011;68206;59.956;30.234;2023-08-08T09:38:55;2.38;;;1.35;;
78854;SDS011;68206;59.956;30.234;2023-08-08T09:41:24;2.10;;;1.27;;
78854;SDS011;68206;59.956;30.234;2023-08-08T09:43:53;2.08;;;1.48;;
78854;SDS011;68206;59.956;30.234;2023-08-08T09:46:22;2.30;;;1.30;;
78854;SDS011;68206;59.956;30.234;2023-08-08T09:48:50;2.22;;;1.40;;
78854;SDS011;68206;59.956;30.234;2023-08-08T09:51:19;1.35;;;1.10;;
78854;SDS011;68206;59.956;30.234;2023-08-08T09:53:49;3.05;;;1.30;;
78854;SDS011;68206;59.956;30.234;2023-08-08T09:56:19;1.98;;;1.17;;
78854;SDS011;68206;59.956;30.234;2023-08-08T09:58:48;3.95;;;1.17;;
78854;SDS011;68206;59.956;30.234;2023-08-08T10:01:17;3.00;;;1.73;;
78854;SDS011;68206;59.956;30.234;2023-08-08T10:03:46;1.83;;;1.38;;
78854;SDS011;68206;59.956;30.234;2023-08-08T10:06:16;1.90;;;0.98;;
78854;SDS011;68206;59.956;30.234;2023-08-08T10:08:44;1.65;;;1.25;;
78854;SDS011;68206;59.956;30.234;2023-08-08T10:11:12;3.55;;;1.27;;
78854;SDS011;68206;59.956;30.234;2023-08-08T10:13:48;2.33;;;1.33;;
78854;SDS011;68206;59.956;30.234;2023-08-08T10:16:17;2.50;;;1.40;;
78854;SDS011;68206;59.956;30.234;2023-08-08T10:18:52;3.08;;;1.50;;
78854;SDS011;68206;59.956;30.234;2023-08-08T10:21:24;1.20;;;1.10;;
78854;SDS011;68206;59.956;30.234;2023-08-08T10:24:01;4.55;;;1.42;;
78854;SDS011;68206;59.956;30.234;2023-08-08T10:29:00;1.95;;;1.20;;
78854;SDS011;68206;59.956;30.234;2023-08-08T10:31:33;3.60;;;1.50;;
78854;SDS011;68206;59.956;30.234;2023-08-08T10:34:03;1.85;;;1.40;;
78854;SDS011;68206;59.956;30.234;2023-08-08T10:36:43;1.55;;;1.15;;
78854;SDS011;68206;59.956;30.234;2023-08-08T10:39:14;2.97;;;1.27;;
78854;SDS011;68206;59.956;30.234;2023-08-08T10:44:22;2.35;;;1.30;;
78854;SDS011;68206;59.956;30.234;2023-08-08T10:46:51;1.27;;;1.10;;
78854;SDS011;68206;59.956;30.234;2023-08-08T10:49:24;3.42;;;1.65;;
78854;SDS011;68206;59.956;30.234;2023-08-08T10:51:52;6.18;;;1.55;;
78854;SDS011;68206;59.956;30.234;2023-08-08T10:54:23;1.80;;;1.20;;
78854;SDS011;68206;59.956;30.234;2023-08-08T10:56:55;2.17;;;1.40;;
78854;SDS011;68206;59.956;30.234;2023-08-08T10:59:27;2.65;;;1.08;;
78854;SDS011;68206;59.956;30.234;2023-08-08T11:02:06;3.13;;;0.90;;
78854;SDS011;68206;59.956;30.234;2023-08-08T11:04:35;4.78;;;1.38;;
78854;SDS011;68206;59.956;30.234;2023-08-08T11:07:04;2.65;;;1.45;;
78854;SDS011;68206;59.956;30.234;2023-08-08T11:09:32;5.78;;;1.45;;
78854;SDS011;68206;59.956;30.234;2023-08-08T11:12:01;4.97;;;1.30;;
78854;SDS011;68206;59.956;30.234;2023-08-08T11:14:31;4.72;;;1.35;;
78854;SDS011;68206;59.956;30.234;2023-08-08T11:17:00;1.10;;;0.93;;
78854;SDS011;68206;59.956;30.234;2023-08-08T11:19:28;2.65;;;1.60;;
78854;SDS011;68206;59.956;30.234;2023-08-08T11:21:57;3.95;;;1.27;;
78854;SDS011;68206;59.956;30.234;2023-08-08T11:24:26;3.58;;;1.65;;
78854;SDS011;68206;59.956;30.234;2023-08-08T11:26:57;2.00;;;1.40;;
78854;SDS011;68206;59.956;30.234;2023-08-08T11:29:26;2.72;;;1.10;;
78854;SDS011;68206;59.956;30.234;2023-08-08T11:32:00;4.50;;;1.30;;
78854;SDS011;68206;59.956;30.234;2023-08-08T11:34:30;0.80;;;0.80;;
78854;SDS011;68206;59.956;30.234;2023-08-08T11:37:00;1.88;;;1.00;;
78854;SDS011;68206;59.956;30.234;2023-08-08T11:39:29;1.30;;;1.05;;
78854;SDS011;68206;59.956;30.234;2023-08-08T11:41:57;2.03;;;0.88;;
78854;SDS011;68206;59.956;30.234;2023-08-08T11:44:27;1.85;;;1.27;;
78854;SDS011;68206;59.956;30.234;2023-08-08T11:47:00;1.70;;;1.20;;
78854;SDS011;68206;59.956;30.234;2023-08-08T11:49:38;2.08;;;1.25;;
78854;SDS011;68206;59.956;30.234;2023-08-08T11:52:09;0.88;;;0.88;;
78854;SDS011;68206;59.956;30.234;2023-08-08T11:54:37;4.45;;;0.80;;
78854;SDS011;68206;59.956;30.234;2023-08-08T11:57:05;3.47;;;1.20;;
78854;SDS011;68206;59.956;30.234;2023-08-08T11:59:35;2.25;;;1.13;;
78854;SDS011;68206;59.956;30.234;2023-08-08T12:02:05;2.15;;;1.33;;
78854;SDS011;68206;59.956;30.234;2023-08-08T12:04:34;1.77;;;1.10;;
78854;SDS011;68206;59.956;30.234;2023-08-08T12:07:03;1.50;;;1.08;;
78854;SDS011;68206;59.956;30.234;2023-08-08T12:09:31;1.52;;;0.73;;
78854;SDS011;68206;59.956;30.234;2023-08-08T12:12:00;1.08;;;1.00;;
78854;SDS011;68206;59.956;30.234;2023-08-08T12:14:29;2.38;;;1.38;;
78854;SDS011;68206;59.956;30.234;2023-08-08T12:17:07;1.15;;;1.02;;
78854;SDS011;68206;59.956;30.234;2023-08-08T12:19:37;5.20;;;0.85;;
78854;SDS011;68206;59.956;30.234;2023-08-08T12:22:12;1.65;;;1.20;;
78854;SDS011;68206;59.956;30.234;2023-08-08T12:24:41;1.23;;;1.08;;
78854;SDS011;68206;59.956;30.234;2023-08-08T12:27:10;0.95;;;0.82;;
78854;SDS011;68206;59.956;30.234;2023-08-08T12:29:38;1.75;;;1.00;;
78854;SDS011;68206;59.956;30.234;2023-08-08T12:32:08;1.42;;;1.25;;
78854;SDS011;68206;59.956;30.234;2023-08-08T12:34:36;1.45;;;1.10;;
78854;SDS011;68206;59.956;30.234;2023-08-08T12:37:04;1.17;;;0.98;;
78854;SDS011;68206;59.956;30.234;2023-08-08T12:39:32;1.20;;;1.10;;
78854;SDS011;68206;59.956;30.234;2023-08-08T12:42:01;2.55;;;1.30;;
78854;SDS011;68206;59.956;30.234;2023-08-08T12:44:29;2.60;;;0.95;;
78854;SDS011;68206;59.956;30.234;2023-08-08T12:46:58;1.50;;;0.85;;
78854;SDS011;68206;59.956;30.234;2023-08-08T12:49:28;3.03;;;1.48;;
78854;SDS011;68206;59.956;30.234;2023-08-08T12:51:56;2.00;;;1.25;;
78854;SDS011;68206;59.956;30.234;2023-08-08T12:54:25;4.20;;;1.20;;
78854;SDS011;68206;59.956;30.234;2023-08-08T12:56:53;1.27;;;0.80;;
78854;SDS011;68206;59.956;30.234;2023-08-08T12:59:21;0.95;;;0.82;;
78854;SDS011;68206;59.956;30.234;2023-08-08T13:01:50;1.42;;;1.00;;
78854;SDS011;68206;59.956;30.234;2023-08-08T13:04:18;1.30;;;0.93;;
78854;SDS011;68206;59.956;30.234;2023-08-08T13:06:48;2.08;;;0.98;;
78854;SDS011;68206;59.956;30.234;2023-08-08T13:09:16;2.70;;;1.50;;
78854;SDS011;68206;59.956;30.234;2023-08-08T13:11:45;2.28;;;1.50;;
78854;SDS011;68206;59.956;30.234;2023-08-08T13:14:13;1.10;;;0.93;;
78854;SDS011;68206;59.956;30.234;2023-08-08T13:16:41;1.20;;;1.00;;
78854;SDS011;68206;59.956;30.234;2023-08-08T13:19:10;2.83;;;1.40;;
78854;SDS011;68206;59.956;30.234;2023-08-08T13:21:38;1.20;;;1.10;;
78854;SDS011;68206;59.956;30.234;2023-08-08T13:24:08;2.88;;;1.10;;
78854;SDS011;68206;59.956;30.234;2023-08-08T13:26:40;3.22;;;1.02;;
78854;SDS011;68206;59.956;30.234;2023-08-08T13:29:08;1.17;;;0.98;;
78854;SDS011;68206;59.956;30.234;2023-08-08T13:31:36;2.28;;;1.00;;
78854;SDS011;68206;59.956;30.234;2023-08-08T13:34:04;3.05;;;1.00;;
78854;SDS011;68206;59.956;30.234;2023-08-08T13:36:33;0.85;;;0.82;;
78854;SDS011;68206;59.956;30.234;2023-08-08T13:39:01;2.17;;;1.02;;
78854;SDS011;68206;59.956;30.234;2023-08-08T13:41:32;3.80;;;1.10;;
78854;SDS011;68206;59.956;30.234;2023-08-08T13:44:00;1.20;;;0.98;;
78854;SDS011;68206;59.956;30.234;2023-08-08T13:46:28;2.35;;;1.30;;
78854;SDS011;68206;59.956;30.234;2023-08-08T13:48:57;2.13;;;1.02;;
78854;SDS011;68206;59.956;30.234;2023-08-08T13:51:25;4.18;;;1.40;;
78854;SDS011;68206;59.956;30.234;2023-08-08T13:53:54;3.08;;;1.10;;
78854;SDS011;68206;59.956;30.234;2023-08-08T13:56:22;1.25;;;0.90;;
78854;SDS011;68206;59.956;30.234;2023-08-08T13:58:52;2.25;;;0.93;;
78854;SDS011;68206;59.956;30.234;2023-08-08T14:01:20;4.57;;;1.02;;
78854;SDS011;68206;59.956;30.234;2023-08-08T14:03:48;5.43;;;1.10;;
78854;SDS011;68206;59.956;30.234;2023-08-08T14:06:17;1.45;;;1.05;;
78854;SDS011;68206;59.956;30.234;2023-08-08T14:08:45;3.33;;;1.20;;
78854;SDS011;68206;59.956;30.234;2023-08-08T14:11:13;1.58;;;1.15;;
78854;SDS011;68206;59.956;30.234;2023-08-08T14:13:41;2.42;;;1.15;;
78854;SDS011;68206;59.956;30.234;2023-08-08T14:16:12;2.60;;;0.85;;
78854;SDS011;68206;59.956;30.234;2023-08-08T14:18:40;1.38;;;0.95;;
78854;SDS011;68206;59.956;30.234;2023-08-08T14:21:08;1.80;;;1.10;;
78854;SDS011;68206;59.956;30.234;2023-08-08T14:23:36;1.05;;;0.88;;
78854;SDS011;68206;59.956;30.234;2023-08-08T14:26:05;2.05;;;0.82;;
78854;SDS011;68206;59.956;30.234;2023-08-08T14:28:33;5.18;;;1.23;;
78854;SDS011;68206;59.956;30.234;2023-08-08T14:31:01;1.13;;;1.02;;
78854;SDS011;68206;59.956;30.234;2023-08-08T14:33:34;4.35;;;1.08;;
78854;SDS011;68206;59.956;30.234;2023-08-08T14:36:03;2.60;;;0.88;;
78854;SDS011;68206;59.956;30.234;2023-08-08T14:38:34;2.55;;;1.35;;
78854;SDS011;68206;59.956;30.234;2023-08-08T14:41:03;4.05;;;1.00;;
78854;SDS011;68206;59.956;30.234;2023-08-08T14:43:32;3.45;;;1.35;;
78854;SDS011;68206;59.956;30.234;2023-08-08T14:46:00;4.65;;;1.13;;
78854;SDS011;68206;59.956;30.234;2023-08-08T14:48:29;3.58;;;1.25;;
78854;SDS011;68206;59.956;30.234;2023-08-08T14:50:59;2.40;;;1.42;;
78854;SDS011;68206;59.956;30.234;2023-08-08T14:53:27;2.65;;;1.20;;
78854;SDS011;68206;59.956;30.234;2023-08-08T14:55:56;4.13;;;1.00;;
78854;SDS011;68206;59.956;30.234;2023-08-08T14:58:25;1.08;;;0.90;;
78854;SDS011;68206;59.956;30.234;2023-08-08T15:00:53;2.38;;;1.50;;
78854;SDS011;68206;59.956;30.234;2023-08-08T15:03:23;6.13;;;1.63;;
78854;SDS011;68206;59.956;30.234;2023-08-08T15:05:51;2.15;;;1.27;;
78854;SDS011;68206;59.956;30.234;2023-08-08T15:08:21;2.70;;;1.27;;
78854;SDS011;68206;59.956;30.234;2023-08-08T15:10:51;2.38;;;1.30;;